Time;durP1;ratioP1;P1;durP2;ratioP2;P2;SDS_P1;SDS_P2;PMS_P1;PMS_P2;Temp;Humidity;BMP_temperature;BMP_pressure;BME280_temperature;BME280_humidity;BME280_pressure;Samples;Min_cycle;Max_cycle;Signal;HPM_P1;HPM_P2
2024/03/17 00:01:36;;;;;;;13.40;9.63;;;;;;;7.87;71.69;99718.53;4868779;29;20033;-92
2024/03/17 00:04:02;;;;;;;16.80;10.18;;;;;;;8.01;71.11;99727.09;4884796;29;20055;-92
2024/03/17 00:06:27;;;;;;;13.65;9.60;;;;;;;7.89;71.52;99710.25;4885749;29;20021;-92
2024/03/17 00:08:54;;;;;;;14.98;9.55;;;;;;;8.04;71.43;99734.63;4900658;29;20035;-92
2024/03/17 00:11:20;;;;;;;20.35;10.63;;;;;;;7.82;71.82;99718.47;4869077;29;20009;-92
2024/03/17 00:13:45;;;;;;;19.83;10.70;;;;;;;7.78;72.02;99724.53;4884807;29;20035;-92
2024/03/17 00:16:12;;;;;;;19.58;10.70;;;;;;;7.76;72.22;99746.22;4880287;29;20052;-91
2024/03/17 00:18:38;;;;;;;17.05;10.60;;;;;;;7.49;73.17;99725.38;4894234;29;20055;-91
2024/03/17 00:21:04;;;;;;;15.32;10.07;;;;;;;7.49;73.16;99727.22;4903160;29;20028;-94
2024/03/17 00:23:32;;;;;;;15.40;9.82;;;;;;;7.32;73.63;99715.63;4906755;29;20027;-91
2024/03/17 00:25:58;;;;;;;13.65;8.75;;;;;;;7.43;73.57;99733.56;4890653;29;20024;-91
2024/03/17 00:28:24;;;;;;;14.93;9.02;;;;;;;7.48;73.58;99747.84;4921927;29;20446;-91
2024/03/17 00:30:50;;;;;;;13.15;8.90;;;;;;;7.33;73.48;99714.59;4921874;29;20490;-92
2024/03/17 00:33:15;;;;;;;19.00;10.07;;;;;;;7.44;73.57;99741.31;4905932;29;20035;-92
2024/03/17 00:35:41;;;;;;;22.83;10.60;;;;;;;7.21;73.40;99703.91;4890739;29;20035;-92
2024/03/17 00:38:10;;;;;;;19.08;10.82;;;;;;;7.19;73.92;99714.06;4891739;29;20034;-92
2024/03/17 00:40:40;;;;;;;16.13;11.40;;;;;;;7.22;74.17;99732.31;4905985;29;20028;-92
2024/03/17 00:43:06;;;;;;;19.95;11.38;;;;;;;7.14;74.38;99725.50;4906734;29;20024;-91
2024/03/17 00:45:31;;;;;;;20.20;12.25;;;;;;;7.17;74.81;99733.03;4906427;29;20074;-92
2024/03/17 00:47:57;;;;;;;19.60;11.40;;;;;;;7.13;74.67;99710.44;4905380;29;20034;-93
2024/03/17 00:50:22;;;;;;;20.55;12.02;;;;;;;7.30;74.42;99737.28;4890401;29;20027;-93
2024/03/17 00:52:48;;;;;;;21.15;11.68;;;;;;;7.31;74.74;99738.13;4905696;29;20036;-92
2024/03/17 00:55:14;;;;;;;19.02;11.43;;;;;;;7.30;74.02;99707.84;4891166;29;20028;-93
2024/03/17 00:57:40;;;;;;;21.52;11.80;;;;;;;7.46;73.65;99730.38;4906516;29;20027;-93
2024/03/17 01:00:06;;;;;;;18.23;10.68;;;;;;;7.69;73.03;99737.50;4904692;29;20020;-93
2024/03/17 01:02:32;;;;;;;18.75;11.43;;;;;;;7.46;73.96;99733.06;4890465;29;20102;-92
2024/03/17 01:04:57;;;;;;;23.73;11.27;;;;;;;7.40;73.84;99734.81;4905718;29;20027;-93
2024/03/17 01:07:23;;;;;;;19.67;10.95;;;;;;;7.28;74.61;99739.41;4904907;29;20091;-91
2024/03/17 01:09:48;;;;;;;20.23;12.32;;;;;;;7.00;75.40;99726.78;4895419;29;20495;-92
2024/03/17 01:12:14;;;;;;;20.25;11.43;;;;;;;7.00;75.25;99722.25;4896039;29;20031;-93
2024/03/17 01:14:40;;;;;;;23.55;11.70;;;;;;;7.11;75.61;99738.53;4921495;29;20028;-93
2024/03/17 01:17:05;;;;;;;20.55;11.88;;;;;;;7.05;75.06;99734.91;4905576;29;20055;-92
2024/03/17 01:19:33;;;;;;;19.73;11.30;;;;;;;6.98;75.48;99705.59;4920350;29;20030;-93
2024/03/17 01:22:00;;;;;;;22.00;10.90;;;;;;;7.13;75.01;99733.75;4921574;29;20035;-92
2024/03/17 01:24:29;;;;;;;20.30;11.45;;;;;;;7.00;74.82;99722.25;4924098;29;20031;-92
2024/03/17 01:26:55;;;;;;;19.88;10.48;;;;;;;6.94;75.39;99709.00;4924073;29;20028;-92
2024/03/17 01:29:20;;;;;;;19.77;11.63;;;;;;;7.06;75.31;99726.66;4909454;29;20028;-92
2024/03/17 01:31:46;;;;;;;17.88;11.93;;;;;;;7.11;74.77;99709.88;4908667;29;20020;-93
2024/03/17 01:34:12;;;;;;;19.10;11.57;;;;;;;7.15;74.44;99712.91;4925155;29;20449;-93
2024/03/17 01:36:38;;;;;;;20.98;11.82;;;;;;;7.18;74.03;99712.41;4908820;29;20032;-93
2024/03/17 01:39:05;;;;;;;16.58;10.93;;;;;;;7.26;74.51;99738.81;4907867;29;20034;-92
2024/03/17 01:41:31;;;;;;;18.33;11.32;;;;;;;7.05;74.85;99719.66;4941334;29;20111;-92
2024/03/17 01:43:58;;;;;;;18.77;10.77;;;;;;;7.14;74.67;99719.28;4924809;29;20498;-93
2024/03/17 01:46:24;;;;;;;18.35;11.15;;;;;;;7.06;74.47;99699.06;4908708;29;20071;-92
2024/03/17 01:48:49;;;;;;;19.35;10.75;;;;;;;7.01;74.16;99701.63;4925658;29;20034;-90
2024/03/17 01:51:15;;;;;;;25.40;11.05;;;;;;;7.02;74.51;99695.25;4926733;29;20031;-88
2024/03/17 01:53:40;;;;;;;18.10;10.45;;;;;;;7.06;74.43;99707.09;4925195;29;20099;-91
2024/03/17 01:56:06;;;;;;;18.75;10.48;;;;;;;7.18;73.95;99723.13;4924777;29;20102;-91
2024/03/17 01:58:32;;;;;;;17.70;10.95;;;;;;;7.13;74.27;99721.16;4923646;29;20545;-91
2024/03/17 02:00:58;;;;;;;16.30;9.95;;;;;;;7.09;73.67;99704.75;4908906;29;20380;-92
2024/03/17 02:03:24;;;;;;;14.95;10.07;;;;;;;7.19;73.54;99704.16;4924233;29;20163;-92
2024/03/17 02:05:49;;;;;;;18.85;9.85;;;;;;;7.31;73.47;99714.03;4908425;29;20024;-93
2024/03/17 02:08:16;;;;;;;15.77;9.63;;;;;;;7.19;73.65;99720.22;4908579;29;20016;-92
2024/03/17 02:10:42;;;;;;;17.52;10.25;;;;;;;7.12;74.31;99738.28;4923324;29;20020;-91
2024/03/17 02:13:07;;;;;;;18.05;11.25;;;;;;;6.94;74.98;99730.41;4924572;29;20486;-91
2024/03/17 02:15:33;;;;;;;23.88;11.57;;;;;;;6.79;75.58;99718.34;4924327;29;20031;-91
2024/03/17 02:17:58;;;;;;;20.58;12.75;;;;;;;6.75;75.79;99719.84;4923396;29;20051;-92
2024/03/17 02:23:10;;;;;;;21.75;11.95;;;;;;;6.56;76.02;99713.00;4914027;29;20071;-92
2024/03/17 02:25:35;;;;;;;18.30;11.98;;;;;;;6.60;76.09;99717.66;4923180;29;20023;-91
2024/03/17 02:28:01;;;;;;;23.38;12.48;;;;;;;6.66;76.04;99722.06;4923412;29;20122;-93
2024/03/17 02:30:27;;;;;;;17.50;11.75;;;;;;;6.60;76.02;99735.56;4923745;29;20051;-92
2024/03/17 02:32:56;;;;;;;18.23;11.85;;;;;;;6.57;76.00;99728.81;4907945;29;20024;-92
2024/03/17 02:35:24;;;;;;;19.52;11.60;;;;;;;6.39;76.23;99708.38;4938871;29;20079;-93
2024/03/17 02:37:50;;;;;;;17.20;10.27;;;;;;;6.40;76.67;99718.00;4923621;29;20028;-91
2024/03/17 02:40:17;;;;;;;16.60;10.50;;;;;;;6.35;76.33;99714.38;4907474;29;20035;-92
2024/03/17 02:42:44;;;;;;;17.50;11.30;;;;;;;6.16;77.10;99709.13;4939418;29;20027;-91
2024/03/17 02:45:11;;;;;;;23.98;11.27;;;;;;;6.09;77.45;99712.97;4923081;29;20043;-91
2024/03/17 02:47:37;;;;;;;19.88;12.77;;;;;;;6.02;77.20;99705.06;4907696;29;20030;-92
2024/03/17 02:50:04;;;;;;;22.23;12.45;;;;;;;6.07;77.45;99706.00;4908439;29;20115;-92
2024/03/17 02:52:29;;;;;;;22.40;13.95;;;;;;;6.06;77.47;99715.06;4907062;29;20024;-94
2024/03/17 02:54:57;;;;;;;20.88;12.48;;;;;;;6.05;77.81;99713.44;4924038;29;20063;-92
2024/03/17 02:57:29;;;;;;;18.85;12.10;;;;;;;5.98;77.90;99712.72;4923346;29;20032;-93
2024/03/17 02:59:55;;;;;;;23.80;12.63;;;;;;;5.99;77.44;99710.88;4909036;29;20031;-93
2024/03/17 03:02:20;;;;;;;19.73;12.68;;;;;;;5.99;77.80;99716.22;4924008;29;20146;-93
2024/03/17 03:04:46;;;;;;;19.05;11.45;;;;;;;6.09;77.86;99734.38;4906870;29;20032;-93
2024/03/17 03:07:11;;;;;;;21.63;11.82;;;;;;;6.16;77.52;99732.41;4923419;29;20196;-93
2024/03/17 03:09:37;;;;;;;19.63;11.43;;;;;;;6.18;76.86;99728.44;4923592;29;20028;-93
2024/03/17 03:12:03;;;;;;;20.38;11.40;;;;;;;6.21;76.70;99722.66;4922613;29;20117;-93
2024/03/17 03:14:29;;;;;;;21.45;12.25;;;;;;;6.21;77.12;99733.34;4908101;29;20564;-94
2024/03/17 03:16:54;;;;;;;19.98;11.45;;;;;;;6.25;76.27;99734.50;4922814;29;20088;-93
2024/03/17 03:19:20;;;;;;;23.25;11.43;;;;;;;6.34;76.49;99736.84;4907722;29;20023;-93
2024/03/17 03:21:46;;;;;;;22.52;11.95;;;;;;;6.26;76.98;99746.81;4923709;29;20383;-94
2024/03/17 03:24:14;;;;;;;21.05;12.25;;;;;;;6.03;76.97;99720.06;4906837;29;20031;-93
2024/03/17 03:26:40;;;;;;;18.42;11.77;;;;;;;6.16;77.31;99746.56;4923334;29;20474;-93
2024/03/17 03:29:05;;;;;;;25.73;12.38;;;;;;;6.09;77.03;99734.38;4907329;29;20030;-93
2024/03/17 03:31:39;;;;;;;22.13;12.65;;;;;;;6.06;77.24;99741.00;4906680;29;20027;-94
2024/03/17 03:34:07;;;;;;;19.67;12.30;;;;;;;6.09;76.97;99740.53;4906696;29;20107;-94
2024/03/17 03:36:33;;;;;;;17.10;11.55;;;;;;;6.14;77.04;99759.34;4907255;29;20027;-94
2024/03/17 03:38:58;;;;;;;20.50;11.82;;;;;;;5.94;77.19;99740.13;4907996;29;20039;-94
2024/03/17 03:41:27;;;;;;;20.80;12.52;;;;;;;5.99;76.98;99756.31;4892071;29;20023;-94
2024/03/17 03:43:53;;;;;;;17.08;11.43;;;;;;;5.84;77.05;99754.03;4892522;29;20031;-94
2024/03/17 03:46:18;;;;;;;20.52;12.55;;;;;;;5.72;76.67;99748.63;4906629;29;20494;-93
2024/03/17 03:48:44;;;;;;;19.05;12.20;;;;;;;5.69;76.71;99746.44;4891798;29;20048;-93
2024/03/17 03:51:10;;;;;;;26.27;14.70;;;;;;;5.60;77.18;99740.59;4906861;29;20028;-93
2024/03/17 03:53:36;;;;;;;23.10;13.32;;;;;;;5.57;77.06;99746.38;4892017;29;20028;-93
2024/03/17 03:56:05;;;;;;;22.13;13.50;;;;;;;5.50;77.72;99747.50;4890826;29;20036;-93
2024/03/17 03:58:37;;;;;;;21.92;12.38;;;;;;;5.41;77.40;99744.34;4891815;29;20023;-93
2024/03/17 04:01:08;;;;;;;21.33;13.30;;;;;;;5.29;77.83;99730.13;4870394;29;20055;-93
2024/03/17 04:03:34;;;;;;;21.35;13.25;;;;;;;5.43;77.75;99750.28;4884685;29;20037;-93
2024/03/17 04:06:07;;;;;;;23.00;12.80;;;;;;;5.40;77.30;99743.53;4884688;29;20385;-94
2024/03/17 04:08:37;;;;;;;28.33;13.68;;;;;;;5.38;77.80;99745.59;4884410;29;20029;-93
2024/03/17 04:11:02;;;;;;;24.50;13.65;;;;;;;5.55;77.84;99769.03;4869119;29;20040;-94
2024/03/17 04:13:29;;;;;;;21.45;13.93;;;;;;;5.50;77.40;99764.38;4883021;29;20036;-93
2024/03/17 04:15:58;;;;;;;25.42;13.57;;;;;;;5.47;77.77;99754.13;4882679;29;20570;-93
2024/03/17 04:18:24;;;;;;;25.65;14.18;;;;;;;5.46;78.19;99764.00;4887277;29;20048;-94
2024/03/17 04:20:53;;;;;;;23.67;12.85;;;;;;;5.29;77.40;99738.94;4887988;29;20060;-93
2024/03/17 04:23:20;;;;;;;19.45;13.10;;;;;;;5.37;78.11;99753.84;4888287;29;20040;-93
2024/03/17 04:25:45;;;;;;;19.63;12.60;;;;;;;5.38;77.77;99755.47;4887470;29;20031;-93
2024/03/17 04:28:11;;;;;;;22.55;13.52;;;;;;;5.25;77.64;99749.25;4888477;29;20032;-94
2024/03/17 04:30:36;;;;;;;19.95;13.00;;;;;;;5.23;77.04;99758.53;4887842;29;20024;-93
2024/03/17 04:33:03;;;;;;;20.75;13.68;;;;;;;5.29;77.34;99775.50;4888752;29;20391;-93
2024/03/17 04:35:29;;;;;;;26.85;14.63;;;;;;;5.30;76.90;99772.63;4887983;29;20049;-94
2024/03/17 04:37:57;;;;;;;24.27;14.70;;;;;;;5.14;77.46;99751.84;4902236;29;20106;-93
2024/03/17 04:40:22;;;;;;;23.65;14.38;;;;;;;5.25;77.68;99767.94;4888869;29;20056;-93
2024/03/17 04:42:48;;;;;;;24.17;13.73;;;;;;;5.21;78.00;99768.63;4888179;29;20095;-92
2024/03/17 04:45:13;;;;;;;25.30;14.15;;;;;;;5.24;77.73;99773.50;4887092;29;20083;-93
2024/03/17 04:47:39;;;;;;;24.98;14.07;;;;;;;5.15;78.05;99766.84;4904488;29;20016;-93
2024/03/17 04:50:05;;;;;;;22.80;14.30;;;;;;;5.41;77.49;99803.09;4886793;29;20024;-93
2024/03/17 04:52:31;;;;;;;25.65;14.68;;;;;;;5.38;77.49;99796.34;4887920;29;20028;-93
2024/03/17 04:54:57;;;;;;;25.77;13.95;;;;;;;5.35;77.18;99794.09;4903773;29;20028;-93
2024/03/17 04:57:22;;;;;;;22.38;14.15;;;;;;;5.22;77.52;99783.59;4903782;29;20055;-93
2024/03/17 04:59:48;;;;;;;26.35;14.25;;;;;;;5.29;76.71;99784.31;4891688;29;20024;-93
2024/03/17 05:02:14;;;;;;;27.75;15.00;;;;;;;5.22;77.03;99784.41;4906360;29;20036;-91
2024/03/17 05:04:39;;;;;;;29.20;14.65;;;;;;;5.14;77.16;99790.03;4891773;29;20036;-92
2024/03/17 05:07:05;;;;;;;28.98;14.70;;;;;;;5.09;77.10;99779.22;4893084;29;20060;-93
2024/03/17 05:09:30;;;;;;;23.00;15.18;;;;;;;5.25;76.92;99797.31;4906022;29;20031;-93
2024/03/17 05:11:56;;;;;;;23.65;13.88;;;;;;;5.18;76.49;99782.41;4894189;29;20036;-94
2024/03/17 05:14:21;;;;;;;21.77;13.85;;;;;;;5.28;76.37;99788.03;4891059;29;20066;-93
2024/03/17 05:16:51;;;;;;;24.38;14.40;;;;;;;5.23;76.96;99791.38;4906065;29;20079;-92
2024/03/17 05:19:17;;;;;;;24.80;14.65;;;;;;;5.31;76.94;99800.94;4907474;29;20068;-94
2024/03/17 05:21:46;;;;;;;24.33;13.88;;;;;;;5.23;77.10;99794.06;4906319;29;20485;-93
2024/03/17 05:24:14;;;;;;;26.50;14.63;;;;;;;5.27;76.64;99797.06;4891480;29;20467;-93
2024/03/17 05:26:40;;;;;;;21.85;13.63;;;;;;;5.32;77.01;99805.25;4891219;29;20031;-93
2024/03/17 05:29:06;;;;;;;22.30;13.35;;;;;;;5.51;76.63;99826.59;4890736;29;20071;-93
2024/03/17 05:31:31;;;;;;;28.58;13.88;;;;;;;5.30;76.81;99801.19;4907038;29;20153;-92
2024/03/17 05:33:57;;;;;;;26.98;13.23;;;;;;;5.46;76.69;99816.59;4922238;29;20031;-92
2024/03/17 05:36:22;;;;;;;20.05;13.30;;;;;;;5.38;76.44;99801.69;4889564;29;20102;-93
2024/03/17 05:38:48;;;;;;;22.55;14.05;;;;;;;5.49;75.98;99805.44;4907207;29;20040;-93
2024/03/17 05:41:14;;;;;;;26.65;13.77;;;;;;;5.58;76.45;99827.31;4905534;29;20069;-93
2024/03/17 05:43:39;;;;;;;22.65;12.88;;;;;;;5.49;76.20;99802.78;4906344;29;20028;-93
2024/03/17 05:46:06;;;;;;;21.80;13.70;;;;;;;5.60;76.42;99822.56;4905990;29;20060;-94
2024/03/17 05:48:37;;;;;;;23.27;14.07;;;;;;;5.56;77.03;99821.38;4905226;29;20020;-93
2024/03/17 05:51:03;;;;;;;31.90;17.00;;;;;;;5.64;76.42;99823.75;4890583;29;20123;-93
2024/03/17 05:53:31;;;;;;;28.83;16.33;;;;;;;5.78;76.59;99819.88;4891137;29;20079;-92
2024/03/17 05:56:00;;;;;;;37.28;16.48;;;;;;;5.85;76.61;99819.78;4905283;29;20455;-91
2024/03/17 05:58:26;;;;;;;32.45;16.85;;;;;;;5.98;76.11;99822.31;4889964;29;20032;-93
2024/03/17 06:00:54;;;;;;;24.33;16.13;;;;;;;6.01;75.53;99821.03;4889975;29;20030;-93
2024/03/17 06:03:19;;;;;;;31.25;16.52;;;;;;;6.17;75.89;99839.13;4905923;29;20032;-92
2024/03/17 06:05:48;;;;;;;29.58;17.08;;;;;;;6.19;75.86;99829.00;4905682;29;20020;-91
2024/03/17 06:08:13;;;;;;;27.45;16.50;;;;;;;6.21;76.26;99824.25;4895106;29;20490;-92
2024/03/17 06:10:43;;;;;;;31.48;16.58;;;;;;;6.35;75.20;99832.06;4908660;29;20062;-95
2024/03/17 06:13:11;;;;;;;29.48;16.80;;;;;;;6.30;75.56;99823.91;4894297;29;20039;-93
2024/03/17 06:15:37;;;;;;;24.83;16.67;;;;;;;6.41;75.46;99821.28;4893761;29;20352;-93
2024/03/17 06:18:03;;;;;;;31.17;19.13;;;;;;;6.68;75.04;99840.41;4892760;29;20055;-93
2024/03/17 06:20:29;;;;;;;27.77;18.33;;;;;;;6.75;74.63;99834.13;4909051;29;20114;-93
2024/03/17 06:22:55;;;;;;;24.95;16.70;;;;;;;6.86;74.22;99833.28;4908438;29;20066;-94
2024/03/17 06:25:23;;;;;;;26.42;16.92;;;;;;;7.01;74.15;99832.81;4908874;29;20027;-93
2024/03/17 06:27:52;;;;;;;27.15;16.83;;;;;;;7.16;73.50;99835.03;4877228;29;20032;-94
2024/03/17 06:30:17;;;;;;;24.70;14.43;;;;;;;7.33;72.76;99848.53;4905542;29;20084;-94
2024/03/17 06:32:46;;;;;;;24.65;15.82;;;;;;;7.63;71.92;99869.78;4889530;29;20032;-94
2024/03/17 06:35:15;;;;;;;25.10;16.38;;;;;;;7.67;72.01;99862.91;4905140;29;20039;-93
2024/03/17 06:37:42;;;;;;;28.73;20.25;;;;;;;7.67;71.76;99868.25;4905724;29;20035;-93
2024/03/17 06:40:14;;;;;;;30.38;20.23;;;;;;;7.81;71.88;99860.75;4889085;29;20032;-92
2024/03/17 06:42:40;;;;;;;31.92;18.63;;;;;;;7.63;71.85;99834.94;4904384;29;20032;-92
2024/03/17 06:45:08;;;;;;;23.88;16.52;;;;;;;7.79;72.41;99866.34;4889957;29;20036;-92
2024/03/17 06:47:35;;;;;;;24.08;15.23;;;;;;;7.85;71.79;99864.59;4889288;29;20191;-92
2024/03/17 06:50:01;;;;;;;20.88;14.43;;;;;;;7.95;71.54;99858.59;4903344;29;20035;-94
2024/03/17 06:52:27;;;;;;;33.33;17.70;;;;;;;8.12;70.99;99862.16;4904998;29;20038;-93
2024/03/17 06:54:52;;;;;;;24.48;18.20;;;;;;;7.99;71.24;99849.03;4889568;29;20036;-93
2024/03/17 06:57:18;;;;;;;29.33;19.73;;;;;;;8.20;70.83;99860.97;4905171;29;20040;-92
2024/03/17 06:59:43;;;;;;;34.15;22.63;;;;;;;8.44;69.94;99862.47;4888932;29;20123;-93
2024/03/17 07:02:10;;;;;;;32.92;24.15;;;;;;;8.40;69.45;99828.31;4888887;29;20032;-92
2024/03/17 07:04:36;;;;;;;45.95;33.60;;;;;;;8.65;69.32;99842.19;4905810;29;20111;-93
2024/03/17 07:07:01;;;;;;;39.83;28.75;;;;;;;8.84;68.37;99860.72;4889148;29;20036;-93
2024/03/17 07:09:27;;;;;;;44.03;27.67;;;;;;;8.74;68.28;99844.47;4889829;29;20055;-93
2024/03/17 07:11:53;;;;;;;41.67;27.85;;;;;;;8.80;68.30;99832.72;4889929;29;20028;-92
2024/03/17 07:14:18;;;;;;;35.35;25.73;;;;;;;9.20;67.47;99861.25;4888788;29;20470;-93
2024/03/17 07:16:44;;;;;;;32.42;22.50;;;;;;;9.27;67.04;99837.69;4905239;29;20044;-92
2024/03/17 07:19:09;;;;;;;30.95;22.17;;;;;;;9.27;67.03;99832.31;4888992;29;20410;-94
2024/03/17 07:21:35;;;;;;;32.15;22.08;;;;;;;9.25;66.61;99827.19;4903435;29;20032;-93
2024/03/17 07:24:04;;;;;;;33.85;21.08;;;;;;;9.45;66.29;99844.66;4904574;29;20032;-93
2024/03/17 07:26:30;;;;;;;28.10;21.17;;;;;;;9.62;64.77;99834.66;4888820;29;20126;-93
2024/03/17 07:28:59;;;;;;;29.63;21.08;;;;;;;9.94;64.95;99857.34;4905131;29;20087;-94
2024/03/17 07:31:24;;;;;;;27.55;20.17;;;;;;;10.10;64.09;99851.84;4889263;29;20031;-94
2024/03/17 07:33:50;;;;;;;29.23;19.02;;;;;;;10.05;64.29;99826.81;4888783;29;20016;-94
2024/03/17 07:36:18;;;;;;;25.80;18.98;;;;;;;10.22;63.93;99840.16;4904554;29;20111;-94
2024/03/17 07:38:44;;;;;;;27.90;18.73;;;;;;;10.33;63.60;99844.56;4903896;29;20028;-94
2024/03/17 07:41:09;;;;;;;33.05;19.00;;;;;;;10.40;63.35;99844.41;4888086;29;20435;-94
2024/03/17 07:43:37;;;;;;;28.48;18.70;;;;;;;10.57;62.35;99853.16;4904258;29;20028;-95
2024/03/17 07:46:03;;;;;;;24.63;18.92;;;;;;;10.74;61.83;99852.22;4888138;29;20020;-93
2024/03/17 07:48:29;;;;;;;27.10;17.35;;;;;;;10.81;61.67;99826.69;4904392;29;20040;-93
2024/03/17 07:51:00;;;;;;;23.02;17.10;;;;;;;10.94;61.47;99836.19;4889305;29;20040;-93
2024/03/17 07:53:26;;;;;;;25.83;15.50;;;;;;;11.09;60.83;99841.66;4887698;29;20096;-92
2024/03/17 07:56:25;;;;;;;21.80;14.63;;;;;;;11.37;60.01;99850.47;4888451;29;20032;-93
2024/03/17 07:58:51;;;;;;;20.38;13.45;;;;;;;11.28;59.77;99833.16;4868049;29;20099;-93
2024/03/17 08:01:17;;;;;;;20.63;15.13;;;;;;;11.53;58.52;99840.53;4904411;29;20076;-94
2024/03/17 08:03:45;;;;;;;20.10;13.73;;;;;;;11.65;58.16;99826.84;4888280;29;20084;-94
2024/03/17 08:06:13;;;;;;;19.48;12.68;;;;;;;11.67;57.47;99836.28;4888918;29;20114;-94
2024/03/17 08:08:39;;;;;;;19.98;12.07;;;;;;;11.72;57.25;99822.00;4904243;29;20122;-95
2024/03/17 08:11:04;;;;;;;22.20;14.38;;;;;;;11.71;58.02;99801.53;4887916;29;20087;-93
2024/03/17 08:13:37;;;;;;;18.08;12.77;;;;;;;11.98;57.26;99804.03;4907000;29;20041;-93
2024/03/17 08:16:05;;;;;;;16.88;12.48;;;;;;;12.15;57.05;99801.09;4907232;29;20035;-94
2024/03/17 08:18:31;;;;;;;19.20;12.80;;;;;;;12.29;56.61;99826.50;4903968;29;20055;-93
2024/03/17 08:20:57;;;;;;;19.33;12.95;;;;;;;12.31;56.50;99801.94;4892197;29;20039;-93
2024/03/17 08:23:23;;;;;;;18.23;12.60;;;;;;;12.57;55.87;99818.13;4905664;29;20050;-92
2024/03/17 08:25:58;;;;;;;13.85;9.77;;;;;;;12.44;54.50;99797.88;4891574;29;20027;-93
2024/03/17 08:28:26;;;;;;;10.05;6.32;;;;;;;12.63;52.38;99804.34;4906716;29;20059;-91
2024/03/17 08:31:00;;;;;;;8.05;5.38;;;;;;;12.79;52.40;99807.84;4921718;29;20424;-94
2024/03/17 08:33:26;;;;;;;16.60;5.90;;;;;;;12.79;51.40;99796.25;4906601;29;20393;-94
2024/03/17 08:36:08;;;;;;;7.25;4.63;;;;;;;12.89;50.04;99783.50;4938872;29;20031;-94
2024/03/17 08:38:34;;;;;;;7.00;4.55;;;;;;;12.91;48.32;99789.44;4906696;29;20032;-93
2024/03/17 08:41:07;;;;;;;9.82;4.75;;;;;;;12.93;47.85;99789.19;4923817;29;20478;-93
2024/03/17 08:43:34;;;;;;;7.15;4.57;;;;;;;13.06;48.23;99782.38;4924204;29;20050;-93
2024/03/17 08:46:08;;;;;;;7.22;4.70;;;;;;;13.05;47.46;99776.19;4922911;29;20474;-94
2024/03/17 08:48:36;;;;;;;6.78;4.15;;;;;;;13.15;46.20;99783.44;4939297;29;20032;-94
2024/03/17 08:51:06;;;;;;;6.75;3.70;;;;;;;13.22;46.03;99777.72;4924510;29;20036;-96
2024/03/17 08:53:33;;;;;;;10.88;6.18;;;;;;;13.23;50.66;99790.97;4909358;29;20047;-96
2024/03/17 08:56:01;;;;;;;7.07;4.53;;;;;;;13.29;48.44;99781.78;4907964;29;20577;-96
2024/03/17 08:58:27;;;;;;;8.20;4.50;;;;;;;13.39;46.64;99772.03;4925071;29;20042;-92
2024/03/17 09:00:53;;;;;;;5.80;4.10;;;;;;;13.49;46.06;99778.22;4938043;29;20039;-94
2024/03/17 09:03:18;;;;;;;7.22;4.57;;;;;;;13.57;45.91;99779.50;4922844;29;20102;-94
2024/03/17 09:05:47;;;;;;;7.00;4.43;;;;;;;13.58;46.88;99766.81;4906524;29;20028;-93
2024/03/17 09:08:21;;;;;;;6.80;4.72;;;;;;;13.70;47.63;99775.41;4921828;29;20059;-93
2024/03/17 09:10:48;;;;;;;6.00;4.03;;;;;;;13.68;45.52;99754.03;4907446;29;20039;-96
2024/03/17 09:13:23;;;;;;;6.25;4.20;;;;;;;13.79;45.33;99762.09;4923451;29;20040;-93
2024/03/17 09:16:02;;;;;;;5.97;4.30;;;;;;;13.83;46.29;99780.19;4906450;29;20522;-93
2024/03/17 09:18:38;;;;;;;6.47;4.25;;;;;;;13.78;46.72;99758.56;4922847;29;20051;-93
2024/03/17 09:21:07;;;;;;;6.47;4.57;;;;;;;13.64;46.54;99761.09;4907532;29;20398;-95
2024/03/17 09:23:34;;;;;;;5.47;4.20;;;;;;;13.86;45.78;99763.41;4906318;29;20027;-94
2024/03/17 09:26:17;;;;;;;6.20;4.50;;;;;;;13.76;46.29;99766.16;4908119;29;20027;-94
2024/03/17 09:28:45;;;;;;;6.97;4.60;;;;;;;13.74;46.21;99769.16;4939575;29;20054;-95
2024/03/17 09:31:17;;;;;;;7.03;4.93;;;;;;;13.64;46.41;99744.03;4925003;29;20036;-95
2024/03/17 09:33:44;;;;;;;6.70;4.43;;;;;;;13.67;46.57;99735.34;4908529;29;20031;-94
2024/03/17 09:36:12;;;;;;;6.55;4.63;;;;;;;13.54;48.01;99742.19;4923354;29;20133;-94
2024/03/17 09:38:39;;;;;;;5.93;4.22;;;;;;;13.71;47.14;99739.91;4906847;29;20110;-94
2024/03/17 09:41:07;;;;;;;6.20;3.85;;;;;;;14.02;45.32;99747.84;4923070;29;20031;-93
2024/03/17 09:43:33;;;;;;;7.20;3.47;;;;;;;14.07;45.17;99734.28;4910216;29;20032;-94
2024/03/17 09:46:01;;;;;;;5.30;3.60;;;;;;;14.12;44.50;99726.09;4926101;29;20036;-94
2024/03/17 09:48:29;;;;;;;5.50;3.20;;;;;;;14.40;42.65;99747.28;4925575;29;20019;-94
2024/03/17 09:50:59;;;;;;;5.00;3.40;;;;;;;14.31;41.63;99731.63;4909886;29;20118;-94
2024/03/17 09:53:25;;;;;;;5.13;3.22;;;;;;;14.44;41.16;99734.78;4924399;29;20510;-93
2024/03/17 09:55:53;;;;;;;7.15;3.80;;;;;;;14.38;42.68;99731.31;4925192;29;20471;-93
2024/03/17 09:58:19;;;;;;;4.32;2.80;;;;;;;14.37;40.47;99742.44;4924913;29;20035;-93
2024/03/17 10:00:46;;;;;;;3.78;2.83;;;;;;;14.36;39.99;99728.09;4908780;29;20383;-94
2024/03/17 10:03:13;;;;;;;6.38;2.92;;;;;;;14.56;40.30;99737.94;4940654;29;20122;-94
2024/03/17 10:05:39;;;;;;;4.70;2.90;;;;;;;14.73;40.35;99745.63;4925025;29;20027;-94
2024/03/17 10:08:05;;;;;;;4.22;2.67;;;;;;;14.58;38.61;99710.56;4909829;29;20042;-92
2024/03/17 10:10:31;;;;;;;4.35;2.70;;;;;;;14.60;39.05;99705.66;4942009;29;20044;-93
2024/03/17 10:12:59;;;;;;;5.15;2.65;;;;;;;14.62;38.79;99695.34;4908993;29;20023;-93
2024/03/17 10:15:25;;;;;;;3.88;2.85;;;;;;;14.85;39.35;99724.34;4909810;29;20079;-93
2024/03/17 10:17:52;;;;;;;3.28;2.33;;;;;;;14.81;38.79;99722.53;4925373;29;20059;-93
2024/03/17 10:20:18;;;;;;;4.97;3.00;;;;;;;14.79;39.21;99722.78;4901265;29;20427;-93
2024/03/17 10:23:04;;;;;;;4.13;2.90;;;;;;;14.82;40.06;99738.50;4905753;29;20063;-94
2024/03/17 10:25:35;;;;;;;4.63;3.10;;;;;;;14.86;40.78;99730.59;4904671;29;20043;-94
2024/03/17 10:28:02;;;;;;;5.45;3.90;;;;;;;14.72;41.24;99722.34;4889695;29;20032;-94
2024/03/17 10:30:30;;;;;;;6.60;3.78;;;;;;;14.80;41.38;99729.06;4874890;29;20024;-93
2024/03/17 10:32:57;;;;;;;4.80;3.22;;;;;;;14.66;41.77;99718.06;4890330;29;20103;-94
2024/03/17 10:35:33;;;;;;;8.63;5.70;;;;;;;14.69;40.84;99709.34;4874867;29;20035;-93
2024/03/17 10:38:02;;;;;;;3.75;2.63;;;;;;;14.72;39.32;99715.00;4891150;29;20028;-94
2024/03/17 10:40:30;;;;;;;5.43;3.85;;;;;;;14.73;40.78;99710.38;4891173;29;20466;-94
2024/03/17 10:42:58;;;;;;;7.90;3.00;;;;;;;14.67;41.08;99715.09;4890519;29;20083;-95
2024/03/17 10:45:26;;;;;;;4.50;3.00;;;;;;;14.57;40.27;99698.94;4891549;29;20028;-94
2024/03/17 10:47:52;;;;;;;5.38;2.92;;;;;;;14.51;40.09;99706.25;4906981;29;20028;-93
2024/03/17 10:50:21;;;;;;;5.00;2.63;;;;;;;14.65;39.85;99711.84;4889469;29;20123;-94
2024/03/17 10:52:52;;;;;;;8.77;4.78;;;;;;;14.53;39.82;99687.00;4890088;29;20056;-93
2024/03/17 10:55:22;;;;;;;4.10;2.72;;;;;;;14.67;39.71;99704.25;4875010;29;20106;-94
2024/03/17 10:57:51;;;;;;;4.38;2.70;;;;;;;14.18;40.05;99667.31;4873418;29;20024;-94
2024/03/17 11:00:24;;;;;;;4.20;2.63;;;;;;;14.43;39.69;99682.50;4889526;29;20107;-93
2024/03/17 11:02:55;;;;;;;3.50;2.38;;;;;;;14.52;40.12;99672.63;4889657;29;20031;-94
2024/03/17 11:05:29;;;;;;;2.65;2.08;;;;;;;14.74;39.74;99693.03;4874624;29;20075;-93
2024/03/17 11:07:59;;;;;;;3.45;2.30;;;;;;;14.74;38.72;99674.06;4891402;29;20043;-93
2024/03/17 11:10:29;;;;;;;3.97;2.60;;;;;;;14.94;38.59;99694.69;4891028;29;20043;-94
2024/03/17 11:12:59;;;;;;;3.70;2.57;;;;;;;14.86;38.65;99695.38;4877503;29;20035;-93
2024/03/17 11:15:36;;;;;;;4.05;2.42;;;;;;;14.78;38.93;99690.56;4889558;29;20427;-93
2024/03/17 11:18:08;;;;;;;4.03;2.38;;;;;;;14.90;38.70;99694.50;4905848;29;20056;-93
2024/03/17 11:20:34;;;;;;;3.08;2.05;;;;;;;14.85;38.19;99674.75;4904467;29;20028;-92
2024/03/17 11:23:02;;;;;;;3.67;2.08;;;;;;;14.88;38.04;99680.41;4873762;29;20083;-93
2024/03/17 11:25:30;;;;;;;3.10;2.00;;;;;;;14.80;37.72;99683.75;4888890;29;20016;-93
2024/03/17 11:27:56;;;;;;;3.45;2.00;;;;;;;14.64;37.48;99672.28;4903844;29;20083;-92
2024/03/17 11:30:55;;;;;;;2.72;1.70;;;;;;;14.65;36.67;99667.66;4888374;29;20122;-94